sensor_id;sensor_type;location;lat;lon;timestamp;temperature;humidity
74968;SHT30;63523;51.880;12.630;2023-04-06T00:01:34;-1.19;82.61
74968;SHT30;63523;51.880;12.630;2023-04-06T00:03:59;-1.21;82.30
74968;SHT30;63523;51.880;12.630;2023-04-06T00:06:25;-1.25;82.12
74968;SHT30;63523;51.880;12.630;2023-04-06T00:08:52;-1.24;82.72
74968;SHT30;63523;51.880;12.630;2023-04-06T00:11:17;-1.25;82.35
74968;SHT30;63523;51.880;12.630;2023-04-06T00:13:44;-1.28;82.76
74968;SHT30;63523;51.880;12.630;2023-04-06T00:16:10;-1.25;82.84
74968;SHT30;63523;51.880;12.630;2023-04-06T00:18:35;-1.28;82.60
74968;SHT30;63523;51.880;12.630;2023-04-06T00:21:01;-1.31;82.66
74968;SHT30;63523;51.880;12.630;2023-04-06T00:23:26;-1.29;82.87
74968;SHT30;63523;51.880;12.630;2023-04-06T00:25:52;-1.35;82.07
74968;SHT30;63523;51.880;12.630;2023-04-06T00:28:17;-1.40;81.71
74968;SHT30;63523;51.880;12.630;2023-04-06T00:30:46;-1.43;81.73
74968;SHT30;63523;51.880;12.630;2023-04-06T00:33:12;-1.45;81.89
74968;SHT30;63523;51.880;12.630;2023-04-06T00:35:37;-1.46;82.15
74968;SHT30;63523;51.880;12.630;2023-04-06T00:38:04;-1.50;82.57
74968;SHT30;63523;51.880;12.630;2023-04-06T00:40:29;-1.53;83.09
74968;SHT30;63523;51.880;12.630;2023-04-06T00:42:56;-1.57;83.09
74968;SHT30;63523;51.880;12.630;2023-04-06T00:45:21;-1.56;83.45
74968;SHT30;63523;51.880;12.630;2023-04-06T00:47:47;-1.63;83.25
74968;SHT30;63523;51.880;12.630;2023-04-06T00:50:12;-1.62;82.67
74968;SHT30;63523;51.880;12.630;2023-04-06T00:52:38;-1.64;82.18
74968;SHT30;63523;51.880;12.630;2023-04-06T00:55:04;-1.67;81.74
74968;SHT30;63523;51.880;12.630;2023-04-06T00:57:31;-1.71;81.84
74968;SHT30;63523;51.880;12.630;2023-04-06T00:59:56;-1.73;82.22
74968;SHT30;63523;51.880;12.630;2023-04-06T01:02:23;-1.71;82.06
74968;SHT30;63523;51.880;12.630;2023-04-06T01:04:52;-1.71;82.71
74968;SHT30;63523;51.880;12.630;2023-04-06T01:07:18;-1.73;83.43
74968;SHT30;63523;51.880;12.630;2023-04-06T01:09:43;-1.71;84.09
74968;SHT30;63523;51.880;12.630;2023-04-06T01:12:09;-1.73;84.52
74968;SHT30;63523;51.880;12.630;2023-04-06T01:14:34;-1.74;84.53
74968;SHT30;63523;51.880;12.630;2023-04-06T01:17:00;-1.78;84.17
74968;SHT30;63523;51.880;12.630;2023-04-06T01:19:26;-1.78;84.03
74968;SHT30;63523;51.880;12.630;2023-04-06T01:21:52;-1.77;84.05
74968;SHT30;63523;51.880;12.630;2023-04-06T01:24:19;-1.76;84.03
74968;SHT30;63523;51.880;12.630;2023-04-06T01:26:44;-1.70;84.48
74968;SHT30;63523;51.880;12.630;2023-04-06T01:29:13;-1.70;85.06
74968;SHT30;63523;51.880;12.630;2023-04-06T01:31:39;-1.70;85.21
74968;SHT30;63523;51.880;12.630;2023-04-06T01:34:05;-1.64;84.90
74968;SHT30;63523;51.880;12.630;2023-04-06T01:36:31;-1.66;84.49
74968;SHT30;63523;51.880;12.630;2023-04-06T01:38:56;-1.64;84.54
74968;SHT30;63523;51.880;12.630;2023-04-06T01:41:22;-1.68;84.62
74968;SHT30;63523;51.880;12.630;2023-04-06T01:43:48;-1.63;84.63
74968;SHT30;63523;51.880;12.630;2023-04-06T01:46:15;-1.64;84.69
74968;SHT30;63523;51.880;12.630;2023-04-06T01:48:41;-1.63;84.75
74968;SHT30;63523;51.880;12.630;2023-04-06T01:51:06;-1.63;84.88
74968;SHT30;63523;51.880;12.630;2023-04-06T01:53:32;-1.60;84.70
74968;SHT30;63523;51.880;12.630;2023-04-06T01:55:57;-1.49;84.14
74968;SHT30;63523;51.880;12.630;2023-04-06T01:58:23;-1.49;84.05
74968;SHT30;63523;51.880;12.630;2023-04-06T02:00:48;-1.43;83.84
74968;SHT30;63523;51.880;12.630;2023-04-06T02:03:14;-1.43;84.06
74968;SHT30;63523;51.880;12.630;2023-04-06T02:05:40;-1.46;84.62
74968;SHT30;63523;51.880;12.630;2023-04-06T02:08:06;-1.45;84.59
74968;SHT30;63523;51.880;12.630;2023-04-06T02:10:32;-1.48;84.56
74968;SHT30;63523;51.880;12.630;2023-04-06T02:12:57;-1.49;85.05
74968;SHT30;63523;51.880;12.630;2023-04-06T02:15:23;-1.53;85.11
74968;SHT30;63523;51.880;12.630;2023-04-06T02:17:49;-1.60;84.64
74968;SHT30;63523;51.880;12.630;2023-04-06T02:20:14;-1.66;84.33
74968;SHT30;63523;51.880;12.630;2023-04-06T02:22:40;-1.68;84.38
74968;SHT30;63523;51.880;12.630;2023-04-06T02:25:06;-1.66;84.60
74968;SHT30;63523;51.880;12.630;2023-04-06T02:27:32;-1.66;84.71
74968;SHT30;63523;51.880;12.630;2023-04-06T02:29:57;-1.70;84.88
74968;SHT30;63523;51.880;12.630;2023-04-06T02:32:23;-1.71;84.98
74968;SHT30;63523;51.880;12.630;2023-04-06T02:34:49;-1.80;84.53
74968;SHT30;63523;51.880;12.630;2023-04-06T02:37:14;-1.85;84.24
74968;SHT30;63523;51.880;12.630;2023-04-06T02:39:40;-1.95;83.57
74968;SHT30;63523;51.880;12.630;2023-04-06T02:42:06;-1.99;83.37
74968;SHT30;63523;51.880;12.630;2023-04-06T02:44:32;-2.06;83.14
74968;SHT30;63523;51.880;12.630;2023-04-06T02:46:57;-2.06;83.49
74968;SHT30;63523;51.880;12.630;2023-04-06T02:49:23;-1.98;84.14
74968;SHT30;63523;51.880;12.630;2023-04-06T02:51:48;-2.04;84.30
74968;SHT30;63523;51.880;12.630;2023-04-06T02:54:14;-2.02;84.68
74968;SHT30;63523;51.880;12.630;2023-04-06T02:56:40;-2.02;84.76
74968;SHT30;63523;51.880;12.630;2023-04-06T02:59:05;-2.06;84.99
74968;SHT30;63523;51.880;12.630;2023-04-06T03:01:31;-2.01;85.28
74968;SHT30;63523;51.880;12.630;2023-04-06T03:03:57;-2.01;84.84
74968;SHT30;63523;51.880;12.630;2023-04-06T03:06:22;-2.02;84.92
74968;SHT30;63523;51.880;12.630;2023-04-06T03:08:49;-2.02;85.09
74968;SHT30;63523;51.880;12.630;2023-04-06T03:11:15;-1.98;85.20
74968;SHT30;63523;51.880;12.630;2023-04-06T03:13:41;-1.97;85.36
74968;SHT30;63523;51.880;12.630;2023-04-06T03:16:06;-1.98;85.30
74968;SHT30;63523;51.880;12.630;2023-04-06T03:18:32;-2.05;84.79
74968;SHT30;63523;51.880;12.630;2023-04-06T03:20:58;-2.12;84.66
74968;SHT30;63523;51.880;12.630;2023-04-06T03:23:25;-2.18;84.65
74968;SHT30;63523;51.880;12.630;2023-04-06T03:25:51;-2.23;84.79
74968;SHT30;63523;51.880;12.630;2023-04-06T03:28:16;-2.22;85.33
74968;SHT30;63523;51.880;12.630;2023-04-06T03:30:42;-2.12;85.77
74968;SHT30;63523;51.880;12.630;2023-04-06T03:33:07;-2.06;85.76
74968;SHT30;63523;51.880;12.630;2023-04-06T03:35:33;-1.99;85.28
74968;SHT30;63523;51.880;12.630;2023-04-06T03:37:58;-1.98;85.20
74968;SHT30;63523;51.880;12.630;2023-04-06T03:40:24;-1.98;84.81
74968;SHT30;63523;51.880;12.630;2023-04-06T03:42:50;-2.08;83.75
74968;SHT30;63523;51.880;12.630;2023-04-06T03:45:16;-2.16;82.96
74968;SHT30;63523;51.880;12.630;2023-04-06T03:47:42;-2.31;82.26
74968;SHT30;63523;51.880;12.630;2023-04-06T03:50:07;-2.38;82.70
74968;SHT30;63523;51.880;12.630;2023-04-06T03:52:34;-2.29;84.17
74968;SHT30;63523;51.880;12.630;2023-04-06T03:55:00;-2.23;84.69
74968;SHT30;63523;51.880;12.630;2023-04-06T03:57:25;-2.16;85.19
74968;SHT30;63523;51.880;12.630;2023-04-06T03:59:51;-2.21;84.64
74968;SHT30;63523;51.880;12.630;2023-04-06T04:02:16;-2.26;84.36
74968;SHT30;63523;51.880;12.630;2023-04-06T04:04:42;-2.33;84.17
74968;SHT30;63523;51.880;12.630;2023-04-06T04:07:08;-2.40;83.93
74968;SHT30;63523;51.880;12.630;2023-04-06T04:09:33;-2.45;83.65
74968;SHT30;63523;51.880;12.630;2023-04-06T04:11:59;-2.54;83.46
74968;SHT30;63523;51.880;12.630;2023-04-06T04:14:25;-2.60;83.05
74968;SHT30;63523;51.880;12.630;2023-04-06T04:16:50;-2.64;82.96
74968;SHT30;63523;51.880;12.630;2023-04-06T04:19:16;-2.67;83.87
74968;SHT30;63523;51.880;12.630;2023-04-06T04:21:43;-2.46;85.78
74968;SHT30;63523;51.880;12.630;2023-04-06T04:24:10;-2.32;86.35
74968;SHT30;63523;51.880;12.630;2023-04-06T04:26:35;-2.19;86.26
74968;SHT30;63523;51.880;12.630;2023-04-06T04:29:01;-2.12;86.24
74968;SHT30;63523;51.880;12.630;2023-04-06T04:31:26;-2.06;86.63
74968;SHT30;63523;51.880;12.630;2023-04-06T04:33:52;-2.05;86.66
74968;SHT30;63523;51.880;12.630;2023-04-06T04:36:17;-2.09;84.81
74968;SHT30;63523;51.880;12.630;2023-04-06T04:38:43;-2.21;83.43
74968;SHT30;63523;51.880;12.630;2023-04-06T04:41:08;-2.31;83.23
74968;SHT30;63523;51.880;12.630;2023-04-06T04:43:34;-2.09;85.52
74968;SHT30;63523;51.880;12.630;2023-04-06T04:46:00;-1.99;85.40
74968;SHT30;63523;51.880;12.630;2023-04-06T04:48:25;-1.80;85.56
74968;SHT30;63523;51.880;12.630;2023-04-06T04:50:51;-1.59;84.35
74968;SHT30;63523;51.880;12.630;2023-04-06T04:53:16;-1.32;84.26
74968;SHT30;63523;51.880;12.630;2023-04-06T04:55:42;-1.09;83.77
74968;SHT30;63523;51.880;12.630;2023-04-06T04:58:08;-0.84;83.29
74968;SHT30;63523;51.880;12.630;2023-04-06T05:00:34;-0.62;82.87
74968;SHT30;63523;51.880;12.630;2023-04-06T05:03:00;-0.31;81.00
74968;SHT30;63523;51.880;12.630;2023-04-06T05:05:25;-0.04;80.45
74968;SHT30;63523;51.880;12.630;2023-04-06T05:07:51;0.07;78.94
74968;SHT30;63523;51.880;12.630;2023-04-06T05:10:17;0.18;78.25
74968;SHT30;63523;51.880;12.630;2023-04-06T05:12:42;0.36;77.69
74968;SHT30;63523;51.880;12.630;2023-04-06T05:15:08;0.59;77.48
74968;SHT30;63523;51.880;12.630;2023-04-06T05:17:34;0.68;77.23
74968;SHT30;63523;51.880;12.630;2023-04-06T05:20:00;0.75;76.71
74968;SHT30;63523;51.880;12.630;2023-04-06T05:22:26;0.90;76.39
74968;SHT30;63523;51.880;12.630;2023-04-06T05:24:51;1.10;76.12
74968;SHT30;63523;51.880;12.630;2023-04-06T05:27:17;1.10;74.28
74968;SHT30;63523;51.880;12.630;2023-04-06T05:29:42;1.24;74.89
74968;SHT30;63523;51.880;12.630;2023-04-06T05:32:08;1.50;75.22
74968;SHT30;63523;51.880;12.630;2023-04-06T05:34:33;1.66;75.81
74968;SHT30;63523;51.880;12.630;2023-04-06T05:36:59;1.78;76.73
74968;SHT30;63523;51.880;12.630;2023-04-06T05:39:27;1.96;75.74
74968;SHT30;63523;51.880;12.630;2023-04-06T05:41:53;2.16;74.39
74968;SHT30;63523;51.880;12.630;2023-04-06T05:44:18;2.33;73.43
74968;SHT30;63523;51.880;12.630;2023-04-06T05:46:47;2.58;72.62
74968;SHT30;63523;51.880;12.630;2023-04-06T05:49:12;2.63;72.06
74968;SHT30;63523;51.880;12.630;2023-04-06T05:51:38;2.76;72.24
74968;SHT30;63523;51.880;12.630;2023-04-06T05:54:03;2.97;71.46
74968;SHT30;63523;51.880;12.630;2023-04-06T05:56:29;3.03;70.22
74968;SHT30;63523;51.880;12.630;2023-04-06T05:58:55;3.20;69.86
74968;SHT30;63523;51.880;12.630;2023-04-06T06:01:21;3.27;69.85
74968;SHT30;63523;51.880;12.630;2023-04-06T06:03:46;3.35;70.12
74968;SHT30;63523;51.880;12.630;2023-04-06T06:06:12;3.58;67.71
74968;SHT30;63523;51.880;12.630;2023-04-06T06:08:37;3.44;68.61
74968;SHT30;63523;51.880;12.630;2023-04-06T06:11:03;3.48;68.68
74968;SHT30;63523;51.880;12.630;2023-04-06T06:13:28;3.69;67.87
74968;SHT30;63523;51.880;12.630;2023-04-06T06:15:54;3.72;68.80
74968;SHT30;63523;51.880;12.630;2023-04-06T06:18:20;3.80;67.90
74968;SHT30;63523;51.880;12.630;2023-04-06T06:20:45;3.91;67.35
74968;SHT30;63523;51.880;12.630;2023-04-06T06:23:11;3.85;67.64
74968;SHT30;63523;51.880;12.630;2023-04-06T06:25:36;4.08;65.92
74968;SHT30;63523;51.880;12.630;2023-04-06T06:28:02;4.00;67.54
74968;SHT30;63523;51.880;12.630;2023-04-06T06:30:28;4.20;66.31
74968;SHT30;63523;51.880;12.630;2023-04-06T06:32:53;4.28;67.17
74968;SHT30;63523;51.880;12.630;2023-04-06T06:35:19;4.46;66.86
74968;SHT30;63523;51.880;12.630;2023-04-06T06:37:44;4.58;66.00
74968;SHT30;63523;51.880;12.630;2023-04-06T06:40:10;4.76;65.47
74968;SHT30;63523;51.880;12.630;2023-04-06T06:42:38;4.76;64.32
74968;SHT30;63523;51.880;12.630;2023-04-06T06:45:05;4.91;65.27
74968;SHT30;63523;51.880;12.630;2023-04-06T06:47:30;5.14;65.30
74968;SHT30;63523;51.880;12.630;2023-04-06T06:49:56;5.23;64.56
74968;SHT30;63523;51.880;12.630;2023-04-06T06:52:21;5.38;64.04
74968;SHT30;63523;51.880;12.630;2023-04-06T06:54:49;5.46;63.45
74968;SHT30;63523;51.880;12.630;2023-04-06T06:57:15;5.52;63.11
74968;SHT30;63523;51.880;12.630;2023-04-06T06:59:40;5.66;62.43
74968;SHT30;63523;51.880;12.630;2023-04-06T07:02:06;5.73;63.03
74968;SHT30;63523;51.880;12.630;2023-04-06T07:04:32;5.93;64.04
74968;SHT30;63523;51.880;12.630;2023-04-06T07:06:57;6.11;62.64
74968;SHT30;63523;51.880;12.630;2023-04-06T07:09:23;6.22;61.58
74968;SHT30;63523;51.880;12.630;2023-04-06T07:11:48;6.34;61.86
74968;SHT30;63523;51.880;12.630;2023-04-06T07:14:15;6.43;60.60
74968;SHT30;63523;51.880;12.630;2023-04-06T07:16:41;6.65;59.35
74968;SHT30;63523;51.880;12.630;2023-04-06T07:19:07;6.72;60.05
74968;SHT30;63523;51.880;12.630;2023-04-06T07:21:33;6.80;59.38
74968;SHT30;63523;51.880;12.630;2023-04-06T07:23:58;7.00;60.21
74968;SHT30;63523;51.880;12.630;2023-04-06T07:26:24;7.12;59.09
74968;SHT30;63523;51.880;12.630;2023-04-06T07:28:50;7.25;59.50
74968;SHT30;63523;51.880;12.630;2023-04-06T07:31:15;7.35;57.64
74968;SHT30;63523;51.880;12.630;2023-04-06T07:33:41;7.38;58.08
74968;SHT30;63523;51.880;12.630;2023-04-06T07:36:07;7.52;58.16
74968;SHT30;63523;51.880;12.630;2023-04-06T07:38:32;7.69;56.39
74968;SHT30;63523;51.880;12.630;2023-04-06T07:40:58;7.79;57.35
74968;SHT30;63523;51.880;12.630;2023-04-06T07:43:23;8.07;54.47
74968;SHT30;63523;51.880;12.630;2023-04-06T07:45:49;8.22;55.94
74968;SHT30;63523;51.880;12.630;2023-04-06T07:48:14;8.38;55.02
74968;SHT30;63523;51.880;12.630;2023-04-06T07:50:40;8.49;55.19
74968;SHT30;63523;51.880;12.630;2023-04-06T07:53:06;8.54;54.17
74968;SHT30;63523;51.880;12.630;2023-04-06T07:55:31;8.66;53.81
74968;SHT30;63523;51.880;12.630;2023-04-06T07:57:57;8.71;54.39
74968;SHT30;63523;51.880;12.630;2023-04-06T08:00:22;8.81;53.11
74968;SHT30;63523;51.880;12.630;2023-04-06T08:02:48;8.97;51.13
74968;SHT30;63523;51.880;12.630;2023-04-06T08:05:13;9.01;52.45
74968;SHT30;63523;51.880;12.630;2023-04-06T08:07:39;9.03;53.43
74968;SHT30;63523;51.880;12.630;2023-04-06T08:10:05;9.22;51.98
74968;SHT30;63523;51.880;12.630;2023-04-06T08:12:32;9.38;51.90
74968;SHT30;63523;51.880;12.630;2023-04-06T08:14:59;9.69;50.54
74968;SHT30;63523;51.880;12.630;2023-04-06T08:17:24;9.69;49.76
74968;SHT30;63523;51.880;12.630;2023-04-06T08:19:50;9.69;50.10
74968;SHT30;63523;51.880;12.630;2023-04-06T08:22:16;9.81;50.14
74968;SHT30;63523;51.880;12.630;2023-04-06T08:24:42;9.97;50.19
74968;SHT30;63523;51.880;12.630;2023-04-06T08:27:07;10.19;48.80
74968;SHT30;63523;51.880;12.630;2023-04-06T08:29:33;10.18;49.86
74968;SHT30;63523;51.880;12.630;2023-04-06T08:31:58;10.21;49.93
74968;SHT30;63523;51.880;12.630;2023-04-06T08:34:24;10.25;48.48
74968;SHT30;63523;51.880;12.630;2023-04-06T08:36:50;10.29;47.72
74968;SHT30;63523;51.880;12.630;2023-04-06T08:39:15;10.38;49.36
74968;SHT30;63523;51.880;12.630;2023-04-06T08:41:41;10.53;49.13
74968;SHT30;63523;51.880;12.630;2023-04-06T08:44:08;10.76;46.22
74968;SHT30;63523;51.880;12.630;2023-04-06T08:46:34;10.94;45.03
74968;SHT30;63523;51.880;12.630;2023-04-06T08:49:01;10.98;45.66
74968;SHT30;63523;51.880;12.630;2023-04-06T08:51:28;10.95;45.92
74968;SHT30;63523;51.880;12.630;2023-04-06T08:53:55;11.05;44.68
74968;SHT30;63523;51.880;12.630;2023-04-06T08:56:22;11.19;43.76
74968;SHT30;63523;51.880;12.630;2023-04-06T08:58:49;11.26;44.60
74968;SHT30;63523;51.880;12.630;2023-04-06T09:01:18;11.40;42.37
74968;SHT30;63523;51.880;12.630;2023-04-06T09:03:46;11.47;43.54
74968;SHT30;63523;51.880;12.630;2023-04-06T09:06:13;11.70;41.63
74968;SHT30;63523;51.880;12.630;2023-04-06T09:08:40;11.78;37.24
74968;SHT30;63523;51.880;12.630;2023-04-06T09:11:06;11.55;35.67
74968;SHT30;63523;51.880;12.630;2023-04-06T09:13:31;11.62;38.48
74968;SHT30;63523;51.880;12.630;2023-04-06T09:16:04;11.71;37.95
74968;SHT30;63523;51.880;12.630;2023-04-06T09:18:33;11.86;37.98
74968;SHT30;63523;51.880;12.630;2023-04-06T09:21:07;11.98;38.14
74968;SHT30;63523;51.880;12.630;2023-04-06T09:23:32;12.17;36.41
74968;SHT30;63523;51.880;12.630;2023-04-06T09:26:12;12.46;37.43
74968;SHT30;63523;51.880;12.630;2023-04-06T09:28:58;12.49;36.01
74968;SHT30;63523;51.880;12.630;2023-04-06T09:31:32;12.55;36.73
74968;SHT30;63523;51.880;12.630;2023-04-06T09:33:59;12.43;35.30
74968;SHT30;63523;51.880;12.630;2023-04-06T09:36:32;12.53;36.01
74968;SHT30;63523;51.880;12.630;2023-04-06T09:39:01;12.40;35.88
74968;SHT30;63523;51.880;12.630;2023-04-06T09:41:32;12.60;33.61
74968;SHT30;63523;51.880;12.630;2023-04-06T09:44:11;12.84;33.82
74968;SHT30;63523;51.880;12.630;2023-04-06T09:46:39;13.23;34.05
74968;SHT30;63523;51.880;12.630;2023-04-06T09:49:07;13.45;31.89
74968;SHT30;63523;51.880;12.630;2023-04-06T09:54:02;13.60;32.25
74968;SHT30;63523;51.880;12.630;2023-04-06T09:56:31;13.39;33.12
74968;SHT30;63523;51.880;12.630;2023-04-06T09:59:05;13.46;33.59
74968;SHT30;63523;51.880;12.630;2023-04-06T10:01:33;13.25;33.44
74968;SHT30;63523;51.880;12.630;2023-04-06T10:06:33;13.45;33.12
74968;SHT30;63523;51.880;12.630;2023-04-06T10:09:02;13.60;33.57
74968;SHT30;63523;51.880;12.630;2023-04-06T10:11:29;13.63;31.56
74968;SHT30;63523;51.880;12.630;2023-04-06T10:13:55;13.77;33.54
74968;SHT30;63523;51.880;12.630;2023-04-06T10:16:21;14.10;32.55
74968;SHT30;63523;51.880;12.630;2023-04-06T10:18:52;14.22;33.23
74968;SHT30;63523;51.880;12.630;2023-04-06T10:21:21;14.60;32.29
74968;SHT30;63523;51.880;12.630;2023-04-06T10:23:51;14.57;32.03
74968;SHT30;63523;51.880;12.630;2023-04-06T10:26:20;14.73;32.42
74968;SHT30;63523;51.880;12.630;2023-04-06T10:28:47;14.59;31.35
74968;SHT30;63523;51.880;12.630;2023-04-06T10:31:13;15.07;31.77
74968;SHT30;63523;51.880;12.630;2023-04-06T10:33:40;15.45;31.51
74968;SHT30;63523;51.880;12.630;2023-04-06T10:38:38;16.01;30.75
74968;SHT30;63523;51.880;12.630;2023-04-06T10:41:05;16.14;30.78
74968;SHT30;63523;51.880;12.630;2023-04-06T10:43:35;15.87;29.50
74968;SHT30;63523;51.880;12.630;2023-04-06T10:46:02;15.14;32.39
74968;SHT30;63523;51.880;12.630;2023-04-06T10:48:41;14.88;33.11
74968;SHT30;63523;51.880;12.630;2023-04-06T10:51:16;14.52;33.88
74968;SHT30;63523;51.880;12.630;2023-04-06T10:53:46;14.55;31.02
74968;SHT30;63523;51.880;12.630;2023-04-06T10:56:14;14.80;33.50
74968;SHT30;63523;51.880;12.630;2023-04-06T10:58:54;15.40;33.30
74968;SHT30;63523;51.880;12.630;2023-04-06T11:01:24;15.36;28.78
74968;SHT30;63523;51.880;12.630;2023-04-06T11:03:53;14.56;29.19
74968;SHT30;63523;51.880;12.630;2023-04-06T11:06:23;13.88;31.38
74968;SHT30;63523;51.880;12.630;2023-04-06T11:08:50;13.65;32.52
74968;SHT30;63523;51.880;12.630;2023-04-06T11:11:18;13.40;31.18
74968;SHT30;63523;51.880;12.630;2023-04-06T11:16:21;14.29;31.11
74968;SHT30;63523;51.880;12.630;2023-04-06T11:18:55;14.87;31.29
74968;SHT30;63523;51.880;12.630;2023-04-06T11:26:47;15.86;30.66
74968;SHT30;63523;51.880;12.630;2023-04-06T11:29:21;16.02;29.64
74968;SHT30;63523;51.880;12.630;2023-04-06T11:31:49;15.93;27.29
74968;SHT30;63523;51.880;12.630;2023-04-06T11:34:21;15.90;29.47
74968;SHT30;63523;51.880;12.630;2023-04-06T11:36:48;15.65;30.84
74968;SHT30;63523;51.880;12.630;2023-04-06T11:39:21;15.60;28.45
74968;SHT30;63523;51.880;12.630;2023-04-06T11:41:50;15.22;28.67
74968;SHT30;63523;51.880;12.630;2023-04-06T11:44:26;14.93;31.90
74968;SHT30;63523;51.880;12.630;2023-04-06T11:46:53;14.76;33.32
74968;SHT30;63523;51.880;12.630;2023-04-06T11:49:18;14.55;31.18
74968;SHT30;63523;51.880;12.630;2023-04-06T11:51:46;14.26;32.20
74968;SHT30;63523;51.880;12.630;2023-04-06T11:54:11;14.10;35.06
74968;SHT30;63523;51.880;12.630;2023-04-06T11:56:38;13.84;33.25
74968;SHT30;63523;51.880;12.630;2023-04-06T11:59:03;13.39;34.36
74968;SHT30;63523;51.880;12.630;2023-04-06T12:01:29;13.28;33.14
74968;SHT30;63523;51.880;12.630;2023-04-06T12:03:55;13.08;35.87
74968;SHT30;63523;51.880;12.630;2023-04-06T12:06:21;12.90;35.89
74968;SHT30;63523;51.880;12.630;2023-04-06T12:08:46;13.14;33.37
74968;SHT30;63523;51.880;12.630;2023-04-06T12:11:12;13.12;34.27
74968;SHT30;63523;51.880;12.630;2023-04-06T12:13:38;13.31;33.80
74968;SHT30;63523;51.880;12.630;2023-04-06T12:16:04;13.19;33.26
74968;SHT30;63523;51.880;12.630;2023-04-06T12:18:30;13.15;33.82
74968;SHT30;63523;51.880;12.630;2023-04-06T12:20:55;13.12;33.10
74968;SHT30;63523;51.880;12.630;2023-04-06T12:23:21;13.14;32.72
74968;SHT30;63523;51.880;12.630;2023-04-06T12:25:46;13.14;33.35
74968;SHT30;63523;51.880;12.630;2023-04-06T12:28:12;13.11;33.75
74968;SHT30;63523;51.880;12.630;2023-04-06T12:30:38;13.14;33.18
74968;SHT30;63523;51.880;12.630;2023-04-06T12:33:04;13.15;35.22
74968;SHT30;63523;51.880;12.630;2023-04-06T12:35:33;13.19;33.94
74968;SHT30;63523;51.880;12.630;2023-04-06T12:37:59;13.16;34.35
74968;SHT30;63523;51.880;12.630;2023-04-06T12:40:24;13.12;34.37
74968;SHT30;63523;51.880;12.630;2023-04-06T12:42:50;13.23;33.57
74968;SHT30;63523;51.880;12.630;2023-04-06T12:45:16;13.21;33.10
74968;SHT30;63523;51.880;12.630;2023-04-06T12:47:41;13.32;32.94
74968;SHT30;63523;51.880;12.630;2023-04-06T12:50:07;13.39;31.58
74968;SHT30;63523;51.880;12.630;2023-04-06T12:52:32;13.65;31.33
74968;SHT30;63523;51.880;12.630;2023-04-06T12:55:03;13.53;30.82
74968;SHT30;63523;51.880;12.630;2023-04-06T12:57:30;13.21;31.40
74968;SHT30;63523;51.880;12.630;2023-04-06T12:59:57;13.16;31.76
74968;SHT30;63523;51.880;12.630;2023-04-06T13:02:22;13.08;33.11
74968;SHT30;63523;51.880;12.630;2023-04-06T13:04:48;13.00;33.65
74968;SHT30;63523;51.880;12.630;2023-04-06T13:07:14;12.98;33.12
74968;SHT30;63523;51.880;12.630;2023-04-06T13:09:40;13.12;32.51
74968;SHT30;63523;51.880;12.630;2023-04-06T13:12:06;13.04;33.04
74968;SHT30;63523;51.880;12.630;2023-04-06T13:14:31;12.98;34.40
74968;SHT30;63523;51.880;12.630;2023-04-06T13:16:57;12.84;32.83
74968;SHT30;63523;51.880;12.630;2023-04-06T13:19:23;12.84;36.09
74968;SHT30;63523;51.880;12.630;2023-04-06T13:21:48;12.70;35.34
74968;SHT30;63523;51.880;12.630;2023-04-06T13:24:14;12.80;34.51
74968;SHT30;63523;51.880;12.630;2023-04-06T13:26:40;13.04;33.71
74968;SHT30;63523;51.880;12.630;2023-04-06T13:29:06;13.15;33.54
74968;SHT30;63523;51.880;12.630;2023-04-06T13:31:31;13.01;33.56
74968;SHT30;63523;51.880;12.630;2023-04-06T13:33:57;13.10;32.05
74968;SHT30;63523;51.880;12.630;2023-04-06T13:36:23;12.83;34.47
74968;SHT30;63523;51.880;12.630;2023-04-06T13:38:48;12.93;34.89
74968;SHT30;63523;51.880;12.630;2023-04-06T13:41:21;13.01;34.85
74968;SHT30;63523;51.880;12.630;2023-04-06T13:43:47;12.90;34.63
74968;SHT30;63523;51.880;12.630;2023-04-06T13:46:12;12.79;35.24
74968;SHT30;63523;51.880;12.630;2023-04-06T13:48:38;12.72;34.22
74968;SHT30;63523;51.880;12.630;2023-04-06T13:51:11;12.73;34.66
74968;SHT30;63523;51.880;12.630;2023-04-06T13:53:38;12.57;34.47
74968;SHT30;63523;51.880;12.630;2023-04-06T13:56:03;12.64;34.49
74968;SHT30;63523;51.880;12.630;2023-04-06T13:58:29;12.50;34.79
74968;SHT30;63523;51.880;12.630;2023-04-06T14:01:04;12.73;33.95
74968;SHT30;63523;51.880;12.630;2023-04-06T14:03:31;12.83;33.96
74968;SHT30;63523;51.880;12.630;2023-04-06T14:05:56;12.72;33.74
74968;SHT30;63523;51.880;12.630;2023-04-06T14:08:22;12.66;34.64
74968;SHT30;63523;51.880;12.630;2023-04-06T14:10:48;12.80;33.72
74968;SHT30;63523;51.880;12.630;2023-04-06T14:13:13;12.63;33.90
74968;SHT30;63523;51.880;12.630;2023-04-06T14:15:39;12.70;35.00
74968;SHT30;63523;51.880;12.630;2023-04-06T14:18:04;12.76;34.06
74968;SHT30;63523;51.880;12.630;2023-04-06T14:20:33;12.67;35.11
74968;SHT30;63523;51.880;12.630;2023-04-06T14:23:02;12.60;34.10
74968;SHT30;63523;51.880;12.630;2023-04-06T14:25:28;12.61;35.17
74968;SHT30;63523;51.880;12.630;2023-04-06T14:27:56;12.76;34.15
74968;SHT30;63523;51.880;12.630;2023-04-06T14:30:22;12.76;32.99
74968;SHT30;63523;51.880;12.630;2023-04-06T14:32:48;12.87;34.55
74968;SHT30;63523;51.880;12.630;2023-04-06T14:35:13;12.79;35.07
74968;SHT30;63523;51.880;12.630;2023-04-06T14:37:38;12.75;33.59
74968;SHT30;63523;51.880;12.630;2023-04-06T14:40:05;12.86;32.74
74968;SHT30;63523;51.880;12.630;2023-04-06T14:42:30;12.75;35.41
74968;SHT30;63523;51.880;12.630;2023-04-06T14:44:57;12.70;34.12
74968;SHT30;63523;51.880;12.630;2023-04-06T14:47:22;12.73;34.15
74968;SHT30;63523;51.880;12.630;2023-04-06T14:49:52;12.61;36.04
74968;SHT30;63523;51.880;12.630;2023-04-06T14:52:18;12.66;35.51
74968;SHT30;63523;51.880;12.630;2023-04-06T14:54:44;12.80;34.77
74968;SHT30;63523;51.880;12.630;2023-04-06T14:57:10;12.77;35.68
74968;SHT30;63523;51.880;12.630;2023-04-06T14:59:35;12.67;33.92
74968;SHT30;63523;51.880;12.630;2023-04-06T15:02:02;12.69;36.24
74968;SHT30;63523;51.880;12.630;2023-04-06T15:04:28;12.57;34.35
74968;SHT30;63523;51.880;12.630;2023-04-06T15:06:54;12.33;36.07
74968;SHT30;63523;51.880;12.630;2023-04-06T15:09:20;12.33;35.45
74968;SHT30;63523;51.880;12.630;2023-04-06T15:11:45;12.40;33.53
74968;SHT30;63523;51.880;12.630;2023-04-06T15:14:11;12.28;35.04
74968;SHT30;63523;51.880;12.630;2023-04-06T15:16:36;12.29;34.30
74968;SHT30;63523;51.880;12.630;2023-04-06T15:19:02;12.40;34.00
74968;SHT30;63523;51.880;12.630;2023-04-06T15:21:27;12.14;35.51
74968;SHT30;63523;51.880;12.630;2023-04-06T15:23:53;12.29;34.22
74968;SHT30;63523;51.880;12.630;2023-04-06T15:26:20;12.33;35.74
74968;SHT30;63523;51.880;12.630;2023-04-06T15:28:46;12.33;35.68
74968;SHT30;63523;51.880;12.630;2023-04-06T15:31:19;12.33;35.54